Time;durP1;ratioP1;P1;durP2;ratioP2;P2;SDS_P1;SDS_P2;PMS_P1;PMS_P2;Temp;Humidity;BMP_temperature;BMP_pressure;BME280_temperature;BME280_humidity;BME280_pressure;Samples;Min_cycle;Max_cycle;Signal;HPM_P1;HPM_P2
2023/09/25 00:00:11;;;;;;;6.60;2.28;;;;;;;;;;4976319;28;20035;-80
2023/09/25 00:02:36;;;;;;;6.43;2.70;;;;;;;;;;4980621;28;20282;-80
2023/09/25 00:05:02;;;;;;;5.10;2.58;;;;;;;;;;4978060;28;20061;-80
2023/09/25 00:07:27;;;;;;;5.25;2.40;;;;;;;;;;4977485;28;20034;-80
2023/09/25 00:09:52;;;;;;;7.22;2.90;;;;;;;;;;4979017;28;20339;-80
2023/09/25 00:12:18;;;;;;;8.07;2.63;;;;;;;;;;4979472;28;20414;-80
2023/09/25 00:14:43;;;;;;;4.60;2.40;;;;;;;;;;4980702;28;20342;-79
2023/09/25 00:17:09;;;;;;;5.43;2.65;;;;;;;;;;4980630;28;20062;-80
2023/09/25 00:19:34;;;;;;;4.95;2.58;;;;;;;;;;4980504;28;20149;-79
2023/09/25 00:22:00;;;;;;;4.70;2.47;;;;;;;;;;4980595;28;20030;-80
2023/09/25 00:24:25;;;;;;;6.72;2.72;;;;;;;;;;4978796;28;20054;-79
2023/09/25 00:26:51;;;;;;;6.03;2.50;;;;;;;;;;4981157;28;20026;-79
2023/09/25 00:29:16;;;;;;;5.60;2.63;;;;;;;;;;4978792;28;20023;-79
2023/09/25 00:31:41;;;;;;;5.38;2.70;;;;;;;;;;4979158;28;20046;-80
2023/09/25 00:34:07;;;;;;;5.90;2.60;;;;;;;;;;4975865;28;20031;-80
2023/09/25 00:36:32;;;;;;;7.85;2.75;;;;;;;;;;4976103;28;20067;-78
2023/09/25 00:38:58;;;;;;;6.10;2.50;;;;;;;;;;4974295;28;20033;-78
2023/09/25 00:41:24;;;;;;;6.38;2.67;;;;;;;;;;4969693;28;20035;-78
2023/09/25 00:43:49;;;;;;;7.18;2.58;;;;;;;;;;4923715;28;1284752;-77
2023/09/25 00:46:15;;;;;;;7.03;2.42;;;;;;;;;;4972528;28;20050;-78
2023/09/25 00:48:42;;;;;;;6.07;2.42;;;;;;;;;;4981377;28;20117;-78
2023/09/25 00:51:08;;;;;;;6.45;2.60;;;;;;;;;;4978657;28;20095;-78
2023/09/25 00:53:34;;;;;;;5.47;2.40;;;;;;;;;;4980817;28;20023;-77
2023/09/25 00:56:00;;;;;;;5.15;2.30;;;;;;;;;;4983244;28;20069;-78
2023/09/25 00:58:25;;;;;;;4.65;2.53;;;;;;;;;;4981065;28;20046;-78
2023/09/25 01:00:52;;;;;;;5.45;2.40;;;;;;;;;;4982005;28;20030;-79
2023/09/25 01:03:18;;;;;;;6.70;2.50;;;;;;;;;;4979960;28;20354;-79
2023/09/25 01:05:44;;;;;;;6.50;2.38;;;;;;;;;;4971908;28;20159;-78
2023/09/25 01:08:10;;;;;;;8.75;2.75;;;;;;;;;;4978612;28;20061;-78
2023/09/25 01:10:37;;;;;;;5.32;2.38;;;;;;;;;;4980429;28;20360;-78
2023/09/25 01:13:03;;;;;;;4.35;2.45;;;;;;;;;;4969132;28;20038;-78
2023/09/25 01:15:28;;;;;;;4.90;2.70;;;;;;;;;;4957902;28;20019;-78
2023/09/25 01:17:55;;;;;;;4.90;2.80;;;;;;;;;;4964548;28;20034;-78
2023/09/25 01:20:22;;;;;;;5.18;2.53;;;;;;;;;;4970042;28;20034;-79
2023/09/25 01:22:48;;;;;;;4.78;2.33;;;;;;;;;;4966149;28;20027;-79
2023/09/25 01:25:15;;;;;;;6.15;2.35;;;;;;;;;;4967617;28;20034;-79
2023/09/25 01:27:43;;;;;;;5.30;2.63;;;;;;;;;;4975555;28;20019;-78
2023/09/25 01:30:13;;;;;;;5.88;2.50;;;;;;;;;;4967077;28;20806;-78
2023/09/25 01:32:40;;;;;;;4.45;2.33;;;;;;;;;;4969440;28;20118;-79
2023/09/25 01:35:14;;;;;;;5.50;2.35;;;;;;;;;;4961460;28;20446;-77
2023/09/25 01:37:39;;;;;;;5.30;2.35;;;;;;;;;;4970068;28;20110;-78
2023/09/25 01:40:08;;;;;;;5.88;2.45;;;;;;;;;;4967498;28;20145;-77
2023/09/25 01:42:34;;;;;;;6.60;2.45;;;;;;;;;;4968000;28;20030;-78
2023/09/25 01:44:59;;;;;;;5.40;2.45;;;;;;;;;;4968710;28;20124;-78
2023/09/25 01:47:24;;;;;;;4.60;2.25;;;;;;;;;;4967795;28;20840;-77
2023/09/25 01:49:50;;;;;;;4.60;2.33;;;;;;;;;;4970306;28;20043;-78
2023/09/25 01:52:17;;;;;;;4.70;2.38;;;;;;;;;;4968483;28;20034;-78
2023/09/25 01:54:42;;;;;;;5.05;2.60;;;;;;;;;;4967843;28;20034;-78
2023/09/25 01:57:08;;;;;;;4.53;2.40;;;;;;;;;;4969290;28;20086;-77
2023/09/25 01:59:33;;;;;;;5.70;2.28;;;;;;;;;;4968518;28;20072;-79
2023/09/25 02:01:58;;;;;;;6.03;2.42;;;;;;;;;;4968582;28;20018;-80
2023/09/25 02:04:24;;;;;;;4.53;2.17;;;;;;;;;;4965699;28;20387;-79
2023/09/25 02:06:49;;;;;;;5.25;2.55;;;;;;;;;;4968770;28;20590;-78
2023/09/25 02:09:14;;;;;;;6.05;2.67;;;;;;;;;;4967453;28;20031;-79
2023/09/25 02:11:40;;;;;;;4.18;2.30;;;;;;;;;;4969004;28;20038;-79
2023/09/25 02:14:05;;;;;;;4.88;2.40;;;;;;;;;;4970870;28;20033;-78
2023/09/25 02:16:31;;;;;;;4.90;2.38;;;;;;;;;;4968467;28;20618;-79
2023/09/25 02:18:56;;;;;;;5.55;2.53;;;;;;;;;;4968411;28;20592;-78
2023/09/25 02:21:22;;;;;;;6.13;2.33;;;;;;;;;;4970106;28;20030;-79
2023/09/25 02:23:47;;;;;;;3.70;2.35;;;;;;;;;;4968957;28;20038;-79
2023/09/25 02:26:13;;;;;;;5.63;2.30;;;;;;;;;;4959487;28;20033;-78
2023/09/25 02:28:38;;;;;;;8.20;2.30;;;;;;;;;;4968063;28;20019;-78
2023/09/25 02:31:04;;;;;;;5.55;2.38;;;;;;;;;;4967830;28;20158;-78
2023/09/25 02:33:29;;;;;;;4.63;2.50;;;;;;;;;;4966409;28;20058;-79
2023/09/25 02:36:09;;;;;;;5.75;2.30;;;;;;;;;;4963360;28;20679;-78
2023/09/25 02:38:37;;;;;;;9.55;2.67;;;;;;;;;;4969434;28;20023;-78
2023/09/25 02:41:03;;;;;;;5.03;2.50;;;;;;;;;;4968189;28;20033;-78
2023/09/25 02:43:28;;;;;;;5.55;2.40;;;;;;;;;;4968408;28;20384;-79
2023/09/25 02:45:54;;;;;;;7.30;2.88;;;;;;;;;;4967384;28;20518;-79
2023/09/25 02:48:19;;;;;;;5.00;2.63;;;;;;;;;;4967908;28;20037;-79
2023/09/25 02:50:46;;;;;;;4.18;2.40;;;;;;;;;;4968316;28;20078;-79
2023/09/25 02:53:11;;;;;;;4.95;2.42;;;;;;;;;;4967000;28;20105;-78
2023/09/25 02:55:37;;;;;;;6.47;2.30;;;;;;;;;;4968507;28;20507;-79
2023/09/25 02:58:02;;;;;;;4.75;2.30;;;;;;;;;;4967564;28;20121;-79
2023/09/25 03:00:28;;;;;;;5.38;2.33;;;;;;;;;;4967930;28;20492;-79
2023/09/25 03:02:53;;;;;;;5.00;2.47;;;;;;;;;;4968085;28;20031;-79
2023/09/25 03:05:19;;;;;;;4.55;2.53;;;;;;;;;;4964625;28;20074;-78
2023/09/25 03:07:45;;;;;;;4.10;2.25;;;;;;;;;;4969283;28;20033;-79
2023/09/25 03:10:10;;;;;;;4.93;2.42;;;;;;;;;;4968298;28;20075;-79
2023/09/25 03:12:36;;;;;;;5.90;2.47;;;;;;;;;;4966428;28;20019;-78
2023/09/25 03:15:04;;;;;;;4.38;2.40;;;;;;;;;;4967165;28;20387;-79
2023/09/25 03:17:30;;;;;;;4.93;2.47;;;;;;;;;;4967948;28;20054;-79
2023/09/25 03:19:55;;;;;;;4.28;2.33;;;;;;;;;;4968783;28;20492;-79
2023/09/25 03:22:20;;;;;;;8.55;2.40;;;;;;;;;;4968395;28;20114;-79
2023/09/25 03:24:46;;;;;;;7.25;2.50;;;;;;;;;;4967862;28;20030;-79
2023/09/25 03:27:13;;;;;;;7.50;2.45;;;;;;;;;;4968565;28;20026;-78
2023/09/25 03:29:38;;;;;;;6.32;2.45;;;;;;;;;;4970450;28;20391;-79
2023/09/25 03:32:03;;;;;;;4.60;2.47;;;;;;;;;;4968607;28;20022;-78
2023/09/25 03:34:28;;;;;;;4.95;2.55;;;;;;;;;;4965349;28;20383;-79
2023/09/25 03:36:54;;;;;;;4.45;2.40;;;;;;;;;;4968068;28;20476;-79
2023/09/25 03:39:19;;;;;;;7.47;3.15;;;;;;;;;;4968538;28;20022;-78
2023/09/25 03:41:44;;;;;;;4.13;2.30;;;;;;;;;;4969280;28;20035;-79
2023/09/25 03:44:10;;;;;;;5.18;2.45;;;;;;;;;;4972448;28;20051;-79
2023/09/25 03:46:36;;;;;;;5.60;2.20;;;;;;;;;;4969186;28;20029;-79
2023/09/25 03:49:05;;;;;;;6.10;2.70;;;;;;;;;;4969091;28;20047;-79
2023/09/25 03:51:31;;;;;;;6.10;2.60;;;;;;;;;;4967578;28;20026;-78
2023/09/25 03:53:56;;;;;;;5.55;2.40;;;;;;;;;;4968254;28;20067;-78
2023/09/25 03:56:21;;;;;;;4.60;2.40;;;;;;;;;;4968093;28;20034;-79
2023/09/25 03:58:47;;;;;;;4.00;2.35;;;;;;;;;;4968743;28;20061;-79
2023/09/25 04:01:12;;;;;;;6.20;2.70;;;;;;;;;;4971432;28;20483;-79
2023/09/25 04:03:37;;;;;;;7.75;2.20;;;;;;;;;;4966255;28;20027;-79
2023/09/25 04:06:03;;;;;;;6.90;2.60;;;;;;;;;;4971071;28;20369;-80
2023/09/25 04:08:28;;;;;;;5.18;2.58;;;;;;;;;;4973046;28;20042;-79
2023/09/25 04:10:53;;;;;;;7.22;2.65;;;;;;;;;;4982872;28;20034;-79
2023/09/25 04:13:22;;;;;;;6.60;2.42;;;;;;;;;;4968867;28;20034;-80
2023/09/25 04:15:48;;;;;;;5.70;2.60;;;;;;;;;;4971059;28;20038;-79
2023/09/25 04:18:13;;;;;;;4.80;2.67;;;;;;;;;;4971075;28;20034;-79
2023/09/25 04:20:38;;;;;;;6.07;2.63;;;;;;;;;;4971488;28;20526;-79
2023/09/25 04:23:04;;;;;;;7.97;2.80;;;;;;;;;;4971636;28;20026;-79
2023/09/25 04:25:29;;;;;;;7.10;3.20;;;;;;;;;;4963816;28;20031;-80
2023/09/25 04:27:55;;;;;;;6.43;2.70;;;;;;;;;;4973660;28;20074;-79
2023/09/25 04:30:23;;;;;;;5.97;3.00;;;;;;;;;;4970882;28;20039;-79
2023/09/25 04:32:49;;;;;;;4.90;2.67;;;;;;;;;;4970225;28;20031;-79
2023/09/25 04:35:16;;;;;;;6.40;2.38;;;;;;;;;;4965503;28;20070;-79
2023/09/25 04:37:42;;;;;;;6.82;2.60;;;;;;;;;;4969200;28;20057;-79
2023/09/25 04:40:22;;;;;;;4.30;2.20;;;;;;;;;;4970871;28;20027;-79
2023/09/25 04:42:52;;;;;;;5.45;2.60;;;;;;;;;;4970455;28;20090;-79
2023/09/25 04:45:20;;;;;;;4.55;2.70;;;;;;;;;;4970394;28;20041;-79
2023/09/25 04:47:53;;;;;;;5.30;2.60;;;;;;;;;;4971387;28;20035;-79
2023/09/25 04:50:20;;;;;;;6.35;2.70;;;;;;;;;;4968954;28;20034;-79
2023/09/25 04:52:45;;;;;;;10.77;3.03;;;;;;;;;;4970937;28;20041;-80
2023/09/25 04:55:12;;;;;;;6.70;2.83;;;;;;;;;;4964320;28;20039;-80
2023/09/25 04:57:47;;;;;;;4.82;2.60;;;;;;;;;;4967817;28;20606;-79
2023/09/25 05:00:16;;;;;;;5.40;2.70;;;;;;;;;;4970491;28;20054;-80
2023/09/25 05:02:45;;;;;;;9.82;2.83;;;;;;;;;;4971537;28;20486;-80
2023/09/25 05:05:11;;;;;;;5.32;2.70;;;;;;;;;;4970542;28;20034;-78
2023/09/25 05:07:36;;;;;;;8.43;3.00;;;;;;;;;;4970987;28;20038;-79
2023/09/25 05:10:02;;;;;;;6.07;2.67;;;;;;;;;;4977223;28;20042;-79
2023/09/25 05:12:27;;;;;;;5.72;2.80;;;;;;;;;;4979892;28;20153;-80
2023/09/25 05:14:53;;;;;;;6.32;2.80;;;;;;;;;;4974499;28;20046;-79
2023/09/25 05:17:18;;;;;;;7.43;2.90;;;;;;;;;;4971672;28;20019;-79
2023/09/25 05:19:43;;;;;;;7.90;3.30;;;;;;;;;;4970253;28;20066;-79
2023/09/25 05:22:09;;;;;;;7.05;2.78;;;;;;;;;;4969798;28;20097;-78
2023/09/25 05:24:35;;;;;;;7.57;3.58;;;;;;;;;;4964656;28;20581;-79
2023/09/25 05:27:01;;;;;;;7.32;3.42;;;;;;;;;;4968780;28;20509;-78
2023/09/25 05:29:26;;;;;;;7.85;3.00;;;;;;;;;;4972140;28;20034;-77
2023/09/25 05:31:54;;;;;;;5.75;2.60;;;;;;;;;;4969915;28;20163;-80
2023/09/25 05:34:20;;;;;;;7.05;2.90;;;;;;;;;;4976158;28;20022;-80
2023/09/25 05:36:45;;;;;;;4.82;2.60;;;;;;;;;;4977748;28;20483;-82
2023/09/25 05:39:11;;;;;;;8.23;3.03;;;;;;;;;;4979206;28;20031;-83
2023/09/25 05:41:36;;;;;;;8.38;2.85;;;;;;;;;;4975383;28;20038;-82
2023/09/25 05:44:02;;;;;;;6.75;3.10;;;;;;;;;;4973841;28;20041;-83
2023/09/25 05:46:27;;;;;;;6.40;3.10;;;;;;;;;;4978477;28;20117;-84
2023/09/25 05:48:53;;;;;;;7.00;2.83;;;;;;;;;;4977727;28;20063;-77
2023/09/25 05:51:21;;;;;;;6.40;2.70;;;;;;;;;;4968801;28;20037;-78
2023/09/25 05:53:47;;;;;;;8.18;2.65;;;;;;;;;;4977050;28;20106;-77
2023/09/25 05:56:13;;;;;;;5.60;3.00;;;;;;;;;;4964836;28;20088;-79
2023/09/25 05:58:38;;;;;;;5.90;2.63;;;;;;;;;;4972946;28;20018;-78
2023/09/25 06:01:03;;;;;;;7.63;2.58;;;;;;;;;;4969767;28;20098;-79
2023/09/25 06:03:31;;;;;;;8.52;2.70;;;;;;;;;;4975381;28;20077;-78
2023/09/25 06:05:57;;;;;;;7.15;2.63;;;;;;;;;;4968007;28;20033;-81
2023/09/25 06:08:23;;;;;;;6.88;2.75;;;;;;;;;;4971698;28;20023;-80
2023/09/25 06:10:50;;;;;;;9.05;3.08;;;;;;;;;;4965587;28;20031;-79
2023/09/25 06:13:16;;;;;;;9.68;3.05;;;;;;;;;;4961395;28;20030;-79
2023/09/25 06:15:46;;;;;;;6.13;3.00;;;;;;;;;;4964528;28;20507;-79
2023/09/25 06:18:11;;;;;;;7.25;3.10;;;;;;;;;;4961546;28;20555;-79
2023/09/25 06:20:38;;;;;;;8.70;3.17;;;;;;;;;;4961463;28;20037;-79
2023/09/25 06:23:04;;;;;;;6.68;2.85;;;;;;;;;;4969121;28;20022;-79
2023/09/25 06:25:30;;;;;;;6.32;2.85;;;;;;;;;;4957757;28;20027;-78
2023/09/25 06:27:56;;;;;;;6.10;2.60;;;;;;;;;;4961463;28;20038;-79
2023/09/25 06:30:21;;;;;;;9.15;3.20;;;;;;;;;;4968976;28;20023;-78
2023/09/25 06:32:47;;;;;;;10.50;3.50;;;;;;;;;;4969650;28;20033;-78
2023/09/25 06:35:13;;;;;;;7.20;3.00;;;;;;;;;;4964304;28;20062;-79
2023/09/25 06:37:38;;;;;;;8.25;3.10;;;;;;;;;;4968326;28;20035;-79
2023/09/25 06:40:09;;;;;;;10.98;3.30;;;;;;;;;;4966904;28;20065;-79
2023/09/25 06:42:35;;;;;;;7.22;2.75;;;;;;;;;;4968259;28;20100;-79
2023/09/25 06:45:00;;;;;;;7.72;3.22;;;;;;;;;;4965529;28;20488;-79
2023/09/25 06:47:26;;;;;;;8.23;3.00;;;;;;;;;;4967725;28;20065;-80
2023/09/25 06:49:51;;;;;;;13.10;3.25;;;;;;;;;;4965482;28;20041;-79
2023/09/25 06:52:16;;;;;;;9.05;3.20;;;;;;;;;;4967305;28;20030;-80
2023/09/25 06:54:43;;;;;;;7.00;3.03;;;;;;;;;;4962275;28;20071;-80
2023/09/25 06:57:08;;;;;;;5.07;2.85;;;;;;;;;;4966752;28;20031;-79
2023/09/25 06:59:34;;;;;;;8.75;3.17;;;;;;;;;;4963939;28;20066;-80
2023/09/25 07:02:00;;;;;;;9.43;3.60;;;;;;;;;;4966116;28;20085;-79
2023/09/25 07:04:26;;;;;;;10.60;3.58;;;;;;;;;;4969868;28;20030;-79
2023/09/25 07:06:52;;;;;;;7.85;3.20;;;;;;;;;;4969980;28;20041;-79
2023/09/25 07:09:18;;;;;;;9.68;2.95;;;;;;;;;;4969840;28;20019;-78
2023/09/25 07:11:44;;;;;;;7.82;3.35;;;;;;;;;;4970137;28;20034;-78
2023/09/25 07:14:09;;;;;;;6.03;3.05;;;;;;;;;;4969691;28;20503;-77
2023/09/25 07:16:35;;;;;;;8.65;2.83;;;;;;;;;;4969157;28;20030;-78
2023/09/25 07:19:00;;;;;;;7.38;2.90;;;;;;;;;;4968962;28;20090;-78
2023/09/25 07:21:26;;;;;;;7.53;3.00;;;;;;;;;;4969547;28;20053;-78
2023/09/25 07:23:51;;;;;;;6.97;2.80;;;;;;;;;;4968645;28;20027;-77
2023/09/25 07:26:17;;;;;;;8.60;3.08;;;;;;;;;;4965425;28;20034;-78
2023/09/25 07:28:47;;;;;;;7.35;3.00;;;;;;;;;;4962203;28;20112;-79
2023/09/25 07:31:18;;;;;;;7.07;3.20;;;;;;;;;;4970044;28;20027;-77
2023/09/25 07:33:43;;;;;;;9.20;3.28;;;;;;;;;;4971324;28;20114;-78
2023/09/25 07:36:09;;;;;;;7.55;3.10;;;;;;;;;;4974596;28;20102;-78
2023/09/25 07:38:34;;;;;;;7.40;3.42;;;;;;;;;;4974437;28;20067;-79
2023/09/25 07:41:00;;;;;;;8.63;3.58;;;;;;;;;;4973292;28;20534;-78
2023/09/25 07:43:25;;;;;;;12.23;3.67;;;;;;;;;;4973050;28;20487;-78
2023/09/25 07:45:54;;;;;;;10.68;4.45;;;;;;;;;;4972083;28;20105;-80
2023/09/25 07:48:20;;;;;;;9.50;3.28;;;;;;;;;;4973007;28;20027;-79
2023/09/25 07:50:46;;;;;;;8.50;3.63;;;;;;;;;;4973204;28;20046;-79
2023/09/25 07:53:14;;;;;;;9.60;3.35;;;;;;;;;;4972014;28;20030;-80
2023/09/25 07:55:41;;;;;;;12.48;3.38;;;;;;;;;;4972232;28;20034;-78
2023/09/25 07:58:07;;;;;;;11.27;3.20;;;;;;;;;;4962206;28;20477;-77
2023/09/25 08:00:40;;;;;;;7.55;3.25;;;;;;;;;;4966279;28;20038;-78
2023/09/25 08:03:06;;;;;;;7.90;3.28;;;;;;;;;;4972866;28;20034;-79
2023/09/25 08:05:33;;;;;;;11.63;3.55;;;;;;;;;;4972736;28;20035;-78
2023/09/25 08:07:58;;;;;;;9.85;3.38;;;;;;;;;;4972322;28;20031;-78
2023/09/25 08:10:24;;;;;;;7.50;3.15;;;;;;;;;;4973075;28;20162;-78
2023/09/25 08:12:49;;;;;;;7.50;2.97;;;;;;;;;;4972591;28;20031;-78
2023/09/25 08:15:15;;;;;;;5.68;2.90;;;;;;;;;;4972729;28;20026;-77
2023/09/25 08:17:44;;;;;;;7.07;2.40;;;;;;;;;;4972632;28;20372;-77
2023/09/25 08:20:22;;;;;;;7.68;3.00;;;;;;;;;;4971355;28;20034;-79
2023/09/25 08:22:50;;;;;;;6.93;2.70;;;;;;;;;;4972510;28;20027;-78
2023/09/25 08:25:15;;;;;;;7.93;3.08;;;;;;;;;;4974508;28;20026;-77
2023/09/25 08:27:41;;;;;;;5.68;2.53;;;;;;;;;;4969770;28;20023;-76
2023/09/25 08:30:08;;;;;;;9.18;2.72;;;;;;;;;;4971880;28;20027;-77
2023/09/25 08:32:33;;;;;;;4.82;2.42;;;;;;;;;;4972239;28;20027;-78
2023/09/25 08:35:00;;;;;;;8.88;2.90;;;;;;;;;;4974448;28;20116;-78
2023/09/25 08:37:25;;;;;;;6.38;2.75;;;;;;;;;;4972809;28;20494;-77
2023/09/25 08:39:54;;;;;;;6.97;2.60;;;;;;;;;;4972132;28;20034;-77
2023/09/25 08:42:24;;;;;;;6.72;2.45;;;;;;;;;;4972877;28;20387;-78
2023/09/25 08:44:51;;;;;;;6.25;2.47;;;;;;;;;;4971877;28;20045;-78
2023/09/25 08:47:21;;;;;;;11.93;2.40;;;;;;;;;;4971426;28;20034;-77
2023/09/25 08:49:49;;;;;;;5.13;2.25;;;;;;;;;;4971911;28;20037;-80
2023/09/25 08:52:15;;;;;;;9.80;2.60;;;;;;;;;;4970170;28;20027;-78
2023/09/25 08:54:41;;;;;;;8.98;2.50;;;;;;;;;;4971761;28;20045;-77
2023/09/25 08:57:06;;;;;;;7.47;2.40;;;;;;;;;;4961771;28;20500;-78
2023/09/25 08:59:36;;;;;;;9.98;2.55;;;;;;;;;;4957763;28;20033;-77
2023/09/25 09:02:02;;;;;;;9.93;2.92;;;;;;;;;;4971934;28;20034;-78
2023/09/25 09:04:27;;;;;;;5.55;2.50;;;;;;;;;;4971673;28;20379;-76
2023/09/25 09:06:53;;;;;;;6.38;2.63;;;;;;;;;;4970547;28;20510;-76
2023/09/25 09:09:18;;;;;;;9.75;2.60;;;;;;;;;;4971199;28;20022;-78
2023/09/25 09:11:52;;;;;;;6.82;2.47;;;;;;;;;;4971822;28;20026;-77
2023/09/25 09:14:41;;;;;;;10.63;2.63;;;;;;;;;;4971624;28;21363;-78
2023/09/25 09:17:07;;;;;;;7.28;2.40;;;;;;;;;;4971395;28;20630;-80
2023/09/25 09:19:38;;;;;;;5.63;2.50;;;;;;;;;;4971554;28;20109;-78
2023/09/25 09:22:05;;;;;;;9.10;2.55;;;;;;;;;;4971687;28;20104;-79
2023/09/25 09:24:37;;;;;;;6.40;2.33;;;;;;;;;;4970779;28;20369;-79
2023/09/25 09:27:07;;;;;;;5.15;2.10;;;;;;;;;;4963653;28;20027;-80
2023/09/25 09:29:43;;;;;;;7.88;2.10;;;;;;;;;;4966645;28;20034;-79
2023/09/25 09:32:09;;;;;;;6.47;2.50;;;;;;;;;;4971488;28;20019;-80
2023/09/25 09:34:36;;;;;;;9.40;2.50;;;;;;;;;;4971492;28;20050;-79
2023/09/25 09:37:02;;;;;;;5.78;2.40;;;;;;;;;;4971414;28;20035;-79
2023/09/25 09:39:34;;;;;;;5.05;2.13;;;;;;;;;;4970694;28;20114;-79
2023/09/25 09:42:04;;;;;;;6.53;2.38;;;;;;;;;;4958411;28;20026;-80
2023/09/25 09:44:29;;;;;;;9.15;2.58;;;;;;;;;;4970674;28;20154;-79
2023/09/25 09:46:55;;;;;;;4.20;2.30;;;;;;;;;;4971243;28;20454;-79
2023/09/25 09:49:23;;;;;;;6.68;2.20;;;;;;;;;;4970556;28;20455;-79
2023/09/25 09:51:50;;;;;;;4.65;2.25;;;;;;;;;;4969992;28;20038;-80
2023/09/25 09:54:18;;;;;;;8.13;2.33;;;;;;;;;;4970437;28;20033;-80
2023/09/25 09:56:47;;;;;;;8.18;2.40;;;;;;;;;;4970783;28;20038;-79
2023/09/25 09:59:13;;;;;;;4.82;2.42;;;;;;;;;;4970815;28;20031;-78
2023/09/25 10:01:42;;;;;;;5.15;2.40;;;;;;;;;;4970700;28;20582;-80
2023/09/25 10:04:08;;;;;;;7.57;2.03;;;;;;;;;;4970411;28;20105;-79
2023/09/25 10:07:00;;;;;;;5.03;2.40;;;;;;;;;;4964903;28;20023;-80
2023/09/25 10:09:27;;;;;;;5.80;2.40;;;;;;;;;;4961163;28;20493;-80
2023/09/25 10:11:55;;;;;;;8.98;2.50;;;;;;;;;;4970925;28;20693;-79
2023/09/25 10:14:22;;;;;;;6.78;2.30;;;;;;;;;;4970734;28;20391;-79
2023/09/25 10:17:03;;;;;;;6.35;2.33;;;;;;;;;;4964136;28;20673;-78
2023/09/25 10:19:52;;;;;;;6.22;2.50;;;;;;;;;;4974590;28;20422;-80
2023/09/25 10:22:30;;;;;;;5.22;2.33;;;;;;;;;;4971391;28;20035;-80
2023/09/25 10:25:10;;;;;;;5.30;2.53;;;;;;;;;;4970155;28;20070;-80
2023/09/25 10:27:36;;;;;;;5.07;2.53;;;;;;;;;;4958993;28;20031;-79
2023/09/25 10:30:13;;;;;;;7.47;2.55;;;;;;;;;;4970189;28;20027;-80
2023/09/25 10:32:40;;;;;;;5.93;2.67;;;;;;;;;;4970543;28;20042;-80
2023/09/25 10:35:42;;;;;;;8.65;2.80;;;;;;;;;;4970130;28;20019;-78
2023/09/25 10:38:19;;;;;;;5.30;2.47;;;;;;;;;;4954660;28;20054;-81
2023/09/25 10:40:46;;;;;;;7.18;2.35;;;;;;;;;;4970336;28;20043;-80
2023/09/25 10:43:16;;;;;;;5.70;2.65;;;;;;;;;;4970048;28;20041;-81
2023/09/25 10:45:42;;;;;;;4.65;2.35;;;;;;;;;;4969944;28;20029;-81
2023/09/25 10:48:10;;;;;;;7.30;2.80;;;;;;;;;;4970308;28;20065;-81
2023/09/25 10:50:37;;;;;;;5.35;2.70;;;;;;;;;;4970282;28;20027;-80
2023/09/25 10:53:06;;;;;;;5.80;2.47;;;;;;;;;;4969532;28;20600;-81
2023/09/25 10:55:32;;;;;;;5.28;2.42;;;;;;;;;;4970116;28;20062;-80
2023/09/25 10:57:58;;;;;;;5.93;2.80;;;;;;;;;;4970101;28;20023;-81
2023/09/25 11:00:24;;;;;;;7.70;2.90;;;;;;;;;;4970049;28;20110;-80
2023/09/25 11:02:51;;;;;;;5.72;2.50;;;;;;;;;;4969563;28;20023;-80
2023/09/25 11:05:17;;;;;;;5.20;2.50;;;;;;;;;;4968744;28;20027;-80
2023/09/25 11:07:42;;;;;;;4.95;2.55;;;;;;;;;;4966102;28;20464;-80
2023/09/25 11:10:10;;;;;;;5.35;2.60;;;;;;;;;;4956410;28;20071;-80
2023/09/25 11:12:36;;;;;;;5.28;2.55;;;;;;;;;;4971905;28;20027;-81
2023/09/25 11:15:10;;;;;;;5.63;2.83;;;;;;;;;;4973741;28;20503;-81
2023/09/25 11:17:36;;;;;;;6.00;2.70;;;;;;;;;;4973715;28;20018;-81
2023/09/25 11:20:07;;;;;;;4.13;2.50;;;;;;;;;;4973656;28;20041;-81
2023/09/25 11:22:38;;;;;;;6.78;2.70;;;;;;;;;;4973356;28;20022;-81
2023/09/25 11:25:07;;;;;;;5.68;2.60;;;;;;;;;;4973626;28;20030;-81
2023/09/25 11:27:32;;;;;;;4.95;2.50;;;;;;;;;;4972537;28;20368;-81
2023/09/25 11:29:57;;;;;;;6.10;2.70;;;;;;;;;;4973546;28;20078;-81
2023/09/25 11:32:23;;;;;;;6.03;2.67;;;;;;;;;;4965218;28;20027;-79
2023/09/25 11:34:48;;;;;;;5.90;2.78;;;;;;;;;;4967642;28;20023;-78
2023/09/25 11:37:20;;;;;;;5.25;2.70;;;;;;;;;;4971345;28;20030;-79
2023/09/25 11:39:46;;;;;;;4.32;2.50;;;;;;;;;;4955873;28;20655;-77
2023/09/25 11:42:12;;;;;;;5.63;2.75;;;;;;;;;;4973674;28;20023;-77
2023/09/25 11:44:37;;;;;;;4.47;2.53;;;;;;;;;;4972840;28;20051;-78
2023/09/25 11:47:05;;;;;;;5.75;2.70;;;;;;;;;;4972201;28;20476;-78
2023/09/25 11:49:30;;;;;;;5.10;2.60;;;;;;;;;;4972803;28;20510;-77
2023/09/25 11:51:56;;;;;;;8.45;2.60;;;;;;;;;;4973420;28;20026;-77
2023/09/25 11:54:21;;;;;;;5.43;2.53;;;;;;;;;;4971737;28;20092;-76
2023/09/25 11:56:47;;;;;;;6.32;2.28;;;;;;;;;;4973158;28;20031;-78
2023/09/25 11:59:15;;;;;;;5.57;2.63;;;;;;;;;;4972600;28;20038;-77
2023/09/25 12:01:41;;;;;;;4.93;2.47;;;;;;;;;;4973235;28;20420;-77
2023/09/25 12:04:08;;;;;;;4.25;2.38;;;;;;;;;;4971351;28;20022;-77
2023/09/25 12:06:34;;;;;;;7.57;2.75;;;;;;;;;;4973196;28;20471;-76
2023/09/25 12:09:10;;;;;;;9.57;2.45;;;;;;;;;;4966842;28;20031;-76
2023/09/25 12:11:36;;;;;;;6.57;2.60;;;;;;;;;;4963837;28;20041;-78
2023/09/25 12:14:01;;;;;;;5.45;2.35;;;;;;;;;;4972611;28;20018;-76
2023/09/25 12:16:26;;;;;;;5.28;2.30;;;;;;;;;;4972670;28;20178;-77
2023/09/25 12:18:53;;;;;;;4.97;2.25;;;;;;;;;;4972045;28;20067;-77
2023/09/25 12:21:19;;;;;;;5.10;2.30;;;;;;;;;;4972554;28;20022;-76
2023/09/25 12:23:44;;;;;;;5.90;2.70;;;;;;;;;;4971990;28;20521;-76
2023/09/25 12:26:10;;;;;;;5.75;2.58;;;;;;;;;;4972791;28;20031;-77
2023/09/25 12:28:35;;;;;;;7.97;2.65;;;;;;;;;;4971219;28;20026;-77
2023/09/25 12:31:00;;;;;;;7.10;2.67;;;;;;;;;;4972662;28;20023;-76
2023/09/25 12:33:26;;;;;;;4.90;2.38;;;;;;;;;;4972154;28;20112;-77
2023/09/25 12:35:52;;;;;;;5.38;2.55;;;;;;;;;;4972384;28;20125;-76
2023/09/25 12:38:17;;;;;;;6.10;2.70;;;;;;;;;;4971797;28;20046;-77
2023/09/25 12:40:42;;;;;;;5.30;2.50;;;;;;;;;;4961563;28;20075;-77
2023/09/25 12:43:08;;;;;;;7.95;2.80;;;;;;;;;;4968237;28;20026;-77
2023/09/25 12:45:34;;;;;;;6.18;2.60;;;;;;;;;;4972307;28;20026;-77
2023/09/25 12:47:59;;;;;;;5.82;2.50;;;;;;;;;;4972126;28;20453;-75
2023/09/25 12:50:25;;;;;;;4.95;2.40;;;;;;;;;;4972209;28;20033;-78
2023/09/25 12:52:51;;;;;;;4.97;2.40;;;;;;;;;;4971257;28;20031;-76
2023/09/25 12:55:16;;;;;;;5.55;2.40;;;;;;;;;;4972038;28;20202;-75
2023/09/25 12:57:42;;;;;;;4.60;2.33;;;;;;;;;;4971880;28;20487;-77
2023/09/25 13:00:08;;;;;;;4.30;2.42;;;;;;;;;;4971906;28;20034;-79
2023/09/25 13:02:34;;;;;;;5.40;2.22;;;;;;;;;;4971936;28;20030;-76
2023/09/25 13:05:00;;;;;;;7.15;2.33;;;;;;;;;;4971957;28;20033;-77
2023/09/25 13:07:25;;;;;;;5.30;2.33;;;;;;;;;;4971714;28;20132;-76
2023/09/25 13:09:51;;;;;;;7.50;2.45;;;;;;;;;;4965307;28;20594;-77
2023/09/25 13:12:16;;;;;;;5.95;2.60;;;;;;;;;;4965009;28;20027;-79
2023/09/25 13:14:41;;;;;;;6.72;2.58;;;;;;;;;;4977120;28;20051;-80
2023/09/25 13:17:07;;;;;;;5.95;2.50;;;;;;;;;;4982485;28;20037;-80
2023/09/25 13:19:32;;;;;;;4.97;2.50;;;;;;;;;;4971670;28;20451;-78
2023/09/25 13:21:58;;;;;;;5.88;2.60;;;;;;;;;;4982871;28;20022;-79
2023/09/25 13:24:27;;;;;;;3.45;2.20;;;;;;;;;;4977357;28;20026;-79
2023/09/25 13:26:53;;;;;;;6.60;2.50;;;;;;;;;;4978067;28;20026;-78
2023/09/25 13:29:19;;;;;;;5.10;2.30;;;;;;;;;;4980834;28;20015;-78
2023/09/25 13:31:44;;;;;;;5.30;2.20;;;;;;;;;;4981644;28;20074;-78
2023/09/25 13:34:10;;;;;;;4.85;2.42;;;;;;;;;;4981164;28;20268;-78
2023/09/25 13:36:35;;;;;;;4.53;2.30;;;;;;;;;;4980190;28;20027;-80
2023/09/25 13:39:00;;;;;;;5.93;2.60;;;;;;;;;;4979764;28;20109;-80
2023/09/25 13:41:26;;;;;;;6.05;2.35;;;;;;;;;;4973673;28;20031;-79
2023/09/25 13:43:51;;;;;;;5.05;2.30;;;;;;;;;;4976146;28;20082;-80
2023/09/25 13:46:16;;;;;;;5.13;2.17;;;;;;;;;;4981199;28;20058;-79
2023/09/25 13:48:43;;;;;;;5.50;2.40;;;;;;;;;;4982039;28;20015;-79
2023/09/25 13:51:09;;;;;;;3.88;2.10;;;;;;;;;;4974939;28;20106;-79
2023/09/25 13:53:35;;;;;;;7.80;2.50;;;;;;;;;;4980208;28;20025;-79
2023/09/25 13:56:02;;;;;;;3.90;1.98;;;;;;;;;;4982350;28;20239;-79
2023/09/25 13:58:27;;;;;;;4.90;2.05;;;;;;;;;;4986972;28;20215;-79
2023/09/25 14:00:54;;;;;;;4.88;2.13;;;;;;;;;;4974567;28;20110;-79
2023/09/25 14:03:20;;;;;;;5.80;2.03;;;;;;;;;;4978777;28;20022;-78
2023/09/25 14:05:45;;;;;;;4.85;2.20;;;;;;;;;;4975280;28;20347;-78
2023/09/25 14:08:11;;;;;;;4.60;2.40;;;;;;;;;;4974973;28;20031;-78
2023/09/25 14:10:37;;;;;;;4.90;2.10;;;;;;;;;;4981563;28;20034;-79
2023/09/25 14:13:04;;;;;;;4.35;2.20;;;;;;;;;;4982116;28;20345;-80
2023/09/25 14:15:29;;;;;;;5.15;2.20;;;;;;;;;;4981748;28;20306;-81
2023/09/25 14:17:55;;;;;;;5.05;2.13;;;;;;;;;;4981555;28;20102;-81
2023/09/25 14:20:20;;;;;;;13.02;8.50;;;;;;;;;;4973572;28;20054;-78
2023/09/25 14:22:45;;;;;;;4.53;2.00;;;;;;;;;;4975018;28;20027;-81
2023/09/25 14:25:11;;;;;;;5.60;2.17;;;;;;;;;;4979787;28;20049;-80
2023/09/25 14:27:36;;;;;;;4.45;2.20;;;;;;;;;;4980229;28;20102;-80
2023/09/25 14:30:02;;;;;;;4.60;2.03;;;;;;;;;;4981542;28;20034;-80
2023/09/25 14:32:27;;;;;;;7.88;2.00;;;;;;;;;;4981627;28;20114;-80
2023/09/25 14:34:53;;;;;;;5.43;2.20;;;;;;;;;;4981366;28;20352;-81
2023/09/25 14:37:19;;;;;;;4.13;2.20;;;;;;;;;;4981260;28;20314;-81
2023/09/25 14:39:45;;;;;;;6.22;2.20;;;;;;;;;;4981318;28;20357;-81